Time;durP1;ratioP1;P1;durP2;ratioP2;P2;SDS_P1;SDS_P2;PMS_P1;PMS_P2;Temp;Humidity;BMP_temperature;BMP_pressure;BME280_temperature;BME280_humidity;BME280_pressure;Samples;Min_cycle;Max_cycle;Signal;HPM_P1;HPM_P2
2022/07/15 00:01:34;;;;;;;1.13;0.30;;;16.50;77.30;;;;;;5030366;28;20064;-78
2022/07/15 00:04:00;;;;;;;1.15;0.43;;;16.40;77.60;;;;;;5030153;28;20082;-80
2022/07/15 00:06:26;;;;;;;0.50;0.30;;;16.40;77.60;;;;;;5054572;28;20060;-82
2022/07/15 00:08:51;;;;;;;0.88;0.43;;;16.50;77.80;;;;;;5046437;28;20050;-81
2022/07/15 00:11:17;;;;;;;1.45;0.40;;;16.40;77.70;;;;;;5058065;28;20098;-79
2022/07/15 00:13:43;;;;;;;0.82;0.40;;;16.50;77.70;;;;;;5048206;28;20040;-80
2022/07/15 00:16:08;;;;;;;1.45;0.55;;;16.50;77.70;;;;;;5029758;28;20033;-78
2022/07/15 00:18:34;;;;;;;1.70;0.50;;;16.50;77.50;;;;;;5048219;28;20494;-79
2022/07/15 00:20:59;;;;;;;3.15;0.50;;;16.50;77.60;;;;;;5052033;28;20032;-79
2022/07/15 00:23:25;;;;;;;3.42;0.50;;;16.50;77.90;;;;;;5066581;28;20094;-80
2022/07/15 00:25:50;;;;;;;6.45;1.05;;;16.50;77.80;;;;;;5048555;28;20819;-80
2022/07/15 00:28:16;;;;;;;2.35;0.50;;;16.50;77.90;;;;;;5047393;28;20149;-77
2022/07/15 00:30:42;;;;;;;0.63;0.40;;;16.50;78.10;;;;;;5045723;28;20044;-79
2022/07/15 00:33:09;;;;;;;1.10;0.52;;;16.50;78.30;;;;;;5046074;28;20162;-78
2022/07/15 00:35:36;;;;;;;1.27;0.35;;;16.50;78.60;;;;;;5045164;28;20040;-78
2022/07/15 00:38:03;;;;;;;1.25;0.32;;;16.40;78.50;;;;;;5044944;28;20037;-78
2022/07/15 00:40:29;;;;;;;1.38;0.40;;;16.40;79.10;;;;;;5032127;28;20037;-78
2022/07/15 00:42:55;;;;;;;1.13;0.57;;;16.40;79.00;;;;;;5033897;28;20680;-77
2022/07/15 00:45:23;;;;;;;1.20;0.50;;;16.40;79.50;;;;;;5046221;28;20040;-78
2022/07/15 00:47:52;;;;;;;1.45;0.47;;;16.30;79.50;;;;;;5046421;28;20079;-78
2022/07/15 00:50:19;;;;;;;0.65;0.40;;;16.30;79.70;;;;;;5055349;28;20482;-77
2022/07/15 00:52:59;;;;;;;1.20;0.50;;;16.30;79.60;;;;;;5069200;28;20368;-78
2022/07/15 00:55:27;;;;;;;0.88;0.40;;;16.30;80.20;;;;;;5038423;28;20029;-79
2022/07/15 00:57:58;;;;;;;0.40;0.30;;;16.30;79.80;;;;;;5031934;28;20119;-78
2022/07/15 01:00:24;;;;;;;1.35;0.40;;;16.30;79.90;;;;;;5063816;28;20043;-81
2022/07/15 01:02:51;;;;;;;3.15;0.50;;;16.30;80.30;;;;;;5045283;28;20032;-78
2022/07/15 01:05:20;;;;;;;1.20;0.50;;;16.30;80.30;;;;;;5028295;28;20024;-78
2022/07/15 01:07:46;;;;;;;0.60;0.38;;;16.30;80.60;;;;;;5046797;28;20037;-78
2022/07/15 01:10:11;;;;;;;1.30;0.40;;;16.30;80.50;;;;;;5046984;28;20139;-78
2022/07/15 01:12:38;;;;;;;1.05;0.30;;;16.30;80.70;;;;;;5046945;28;20025;-80
2022/07/15 01:15:05;;;;;;;1.85;0.50;;;16.30;80.60;;;;;;5028477;28;20067;-78
2022/07/15 01:17:31;;;;;;;1.10;0.50;;;16.30;80.70;;;;;;5028332;28;20078;-77
2022/07/15 01:19:56;;;;;;;0.70;0.55;;;16.30;80.90;;;;;;5054787;28;20033;-79
2022/07/15 01:22:22;;;;;;;0.50;0.40;;;16.30;81.30;;;;;;5066023;28;20040;-79
2022/07/15 01:24:48;;;;;;;1.00;0.80;;;16.30;81.40;;;;;;5048216;28;20499;-77
2022/07/15 01:27:13;;;;;;;2.17;0.47;;;16.20;81.60;;;;;;5046915;28;20115;-78
2022/07/15 01:29:38;;;;;;;4.60;0.50;;;16.20;82.20;;;;;;5061511;28;20203;-77
2022/07/15 01:32:04;;;;;;;1.45;0.50;;;16.10;82.10;;;;;;5045805;28;20032;-77
2022/07/15 01:34:30;;;;;;;1.70;0.50;;;16.10;82.10;;;;;;5025493;28;20036;-80
2022/07/15 01:36:55;;;;;;;2.33;0.50;;;16.10;82.20;;;;;;5045575;28;20039;-77
2022/07/15 01:39:21;;;;;;;3.25;0.63;;;16.10;82.50;;;;;;5046021;28;20033;-78
2022/07/15 01:41:46;;;;;;;1.42;0.50;;;16.10;82.50;;;;;;5049987;28;20044;-79
2022/07/15 01:44:14;;;;;;;0.93;0.40;;;16.10;82.90;;;;;;5044336;28;20867;-80
2022/07/15 01:46:39;;;;;;;1.15;0.40;;;16.00;82.90;;;;;;5060944;28;20040;-77
2022/07/15 01:51:50;;;;;;;1.02;0.60;;;16.00;83.30;;;;;;5066645;28;20063;-77
2022/07/15 01:54:16;;;;;;;1.80;0.60;;;16.00;83.40;;;;;;5062952;28;20025;-80
2022/07/15 01:56:42;;;;;;;1.50;0.50;;;15.90;83.60;;;;;;5045555;28;20036;-77
2022/07/15 01:59:07;;;;;;;1.85;0.40;;;15.90;83.80;;;;;;5031127;28;20040;-77
2022/07/15 02:01:33;;;;;;;1.67;0.40;;;15.80;84.10;;;;;;5050145;28;20029;-79
2022/07/15 02:03:59;;;;;;;3.03;0.60;;;15.80;84.60;;;;;;5032423;28;20036;-77
2022/07/15 02:06:25;;;;;;;1.67;0.60;;;15.70;84.70;;;;;;5044729;28;20398;-79
2022/07/15 02:08:51;;;;;;;1.33;0.70;;;15.70;84.90;;;;;;5027858;28;20039;-77
2022/07/15 02:11:16;;;;;;;6.25;0.88;;;15.70;85.20;;;;;;5045575;28;20054;-77
2022/07/15 02:13:43;;;;;;;1.75;0.70;;;15.70;85.60;;;;;;5030927;28;20397;-77
2022/07/15 02:16:08;;;;;;;2.17;0.65;;;15.60;85.90;;;;;;5060616;28;20520;-80
2022/07/15 02:18:34;;;;;;;2.28;0.50;;;15.60;86.50;;;;;;5047465;28;20040;-77
2022/07/15 02:21:01;;;;;;;1.90;0.70;;;15.60;86.80;;;;;;5048532;28;20501;-80
2022/07/15 02:23:26;;;;;;;1.65;0.60;;;15.60;86.90;;;;;;5064989;28;20028;-79
2022/07/15 02:25:51;;;;;;;0.93;0.63;;;15.50;87.40;;;;;;5031882;28;20484;-80
2022/07/15 02:28:17;;;;;;;1.60;0.63;;;15.50;87.90;;;;;;5063311;28;20493;-79
2022/07/15 02:30:43;;;;;;;1.35;0.47;;;15.50;88.40;;;;;;5046772;28;20077;-78
2022/07/15 02:33:09;;;;;;;2.90;0.73;;;15.50;88.70;;;;;;5047200;28;20125;-78
2022/07/15 02:35:37;;;;;;;1.77;0.57;;;15.40;88.80;;;;;;5047730;28;20470;-82
2022/07/15 02:38:02;;;;;;;2.75;0.65;;;15.50;89.10;;;;;;5046650;28;20032;-82
2022/07/15 02:40:30;;;;;;;5.43;0.77;;;15.40;89.60;;;;;;5025629;28;20708;-78
2022/07/15 02:42:58;;;;;;;2.65;0.60;;;15.40;89.90;;;;;;5045598;28;20442;-79
2022/07/15 02:45:25;;;;;;;1.80;0.52;;;15.40;90.10;;;;;;5047254;28;20048;-78
2022/07/15 02:47:51;;;;;;;2.80;1.10;;;15.30;90.30;;;;;;5045672;28;20040;-83
2022/07/15 02:50:18;;;;;;;4.78;1.20;;;15.30;90.40;;;;;;5056840;28;20124;-77
2022/07/15 02:52:44;;;;;;;2.78;0.70;;;15.30;90.70;;;;;;5036048;28;20410;-79
2022/07/15 02:55:11;;;;;;;3.70;0.80;;;15.20;90.80;;;;;;5061995;28;20039;-79
2022/07/15 02:57:37;;;;;;;1.50;0.60;;;15.20;91.00;;;;;;5029839;28;20129;-80
2022/07/15 03:00:06;;;;;;;2.08;0.70;;;15.20;91.20;;;;;;5063547;28;20123;-79
2022/07/15 03:02:32;;;;;;;3.90;0.82;;;15.20;91.30;;;;;;5055599;28;20033;-79
2022/07/15 03:04:57;;;;;;;2.40;0.77;;;15.30;91.60;;;;;;5043131;28;20028;-80
2022/07/15 03:07:23;;;;;;;2.53;1.02;;;15.20;91.70;;;;;;5043147;28;20059;-80
2022/07/15 03:09:49;;;;;;;2.10;0.88;;;15.10;91.90;;;;;;5044037;28;20119;-80
2022/07/15 03:12:15;;;;;;;2.50;0.80;;;15.10;92.10;;;;;;5025004;28;20043;-79
2022/07/15 03:14:41;;;;;;;2.92;0.60;;;15.10;92.30;;;;;;5044486;28;20032;-83
2022/07/15 03:17:07;;;;;;;1.55;0.70;;;15.10;92.40;;;;;;5059587;28;20078;-82
2022/07/15 03:19:33;;;;;;;3.70;1.10;;;15.00;92.80;;;;;;5029439;28;20107;-80
2022/07/15 03:21:59;;;;;;;1.08;0.60;;;14.90;93.00;;;;;;5043994;28;20035;-81
2022/07/15 03:24:24;;;;;;;6.38;1.35;;;14.90;93.30;;;;;;5043145;28;22116;-81
2022/07/15 03:26:50;;;;;;;2.15;0.88;;;14.90;93.40;;;;;;5043237;28;20128;-80
2022/07/15 03:29:15;;;;;;;2.83;0.85;;;14.90;93.40;;;;;;5054763;28;20485;-80
2022/07/15 03:31:42;;;;;;;2.58;0.88;;;14.90;93.70;;;;;;5067842;28;20029;-79
2022/07/15 03:34:09;;;;;;;4.25;1.05;;;14.90;93.80;;;;;;5055863;28;20040;-80
2022/07/15 03:36:37;;;;;;;1.65;0.73;;;14.90;93.70;;;;;;5043184;28;20033;-82
2022/07/15 03:39:03;;;;;;;4.07;0.98;;;14.90;93.90;;;;;;5022922;28;20538;-84
2022/07/15 03:41:29;;;;;;;2.67;1.00;;;14.90;93.90;;;;;;5043962;28;20094;-79
2022/07/15 03:43:54;;;;;;;4.90;1.30;;;15.00;94.00;;;;;;5047946;28;20037;-79
2022/07/15 03:46:20;;;;;;;3.65;0.85;;;14.90;94.10;;;;;;5046891;28;20141;-78
2022/07/15 03:48:45;;;;;;;5.28;1.00;;;14.90;94.30;;;;;;5050072;28;20154;-80
2022/07/15 03:51:10;;;;;;;2.40;0.85;;;14.90;94.40;;;;;;5031001;28;20041;-81
2022/07/15 03:53:36;;;;;;;2.25;0.75;;;14.90;94.50;;;;;;5047773;28;20029;-82
2022/07/15 03:56:02;;;;;;;5.13;1.42;;;15.00;94.60;;;;;;5029891;28;20087;-80
2022/07/15 03:58:27;;;;;;;2.50;0.88;;;15.00;94.50;;;;;;5038708;28;20474;-83
2022/07/15 04:00:53;;;;;;;2.80;1.00;;;15.00;94.50;;;;;;5080490;28;20028;-79
2022/07/15 04:03:18;;;;;;;2.17;0.80;;;15.00;94.50;;;;;;5072981;28;20040;-82
2022/07/15 04:05:44;;;;;;;2.92;1.10;;;15.10;94.40;;;;;;5091463;28;20028;-82
2022/07/15 04:08:10;;;;;;;6.35;1.25;;;15.10;94.40;;;;;;5062804;28;20028;-79
2022/07/15 04:10:36;;;;;;;3.08;0.80;;;15.10;94.40;;;;;;5061748;28;20113;-81
2022/07/15 04:13:02;;;;;;;5.40;1.13;;;15.10;94.30;;;;;;5066933;28;22197;-80
2022/07/15 04:15:28;;;;;;;2.00;0.88;;;15.20;94.30;;;;;;5048099;28;20171;-80
2022/07/15 04:17:53;;;;;;;2.35;1.02;;;15.20;94.30;;;;;;5046664;28;20066;-79
2022/07/15 04:20:19;;;;;;;3.28;0.93;;;15.20;94.40;;;;;;5026767;28;20056;-82
2022/07/15 04:22:46;;;;;;;5.10;1.10;;;15.20;94.40;;;;;;5046577;28;20037;-83
2022/07/15 04:25:16;;;;;;;5.82;1.00;;;15.30;94.50;;;;;;5031415;28;20021;-83
2022/07/15 04:27:42;;;;;;;2.20;0.80;;;15.20;94.60;;;;;;5049837;28;20040;-80
2022/07/15 04:30:08;;;;;;;3.65;1.10;;;15.30;94.60;;;;;;5046036;28;20501;-83
2022/07/15 04:32:34;;;;;;;3.78;0.70;;;15.40;94.20;;;;;;5045616;28;20037;-83
2022/07/15 04:35:01;;;;;;;3.38;0.85;;;15.50;94.40;;;;;;5048511;28;20367;-81
2022/07/15 04:37:27;;;;;;;3.30;0.93;;;15.60;94.40;;;;;;5047114;28;21482;-84
2022/07/15 04:39:54;;;;;;;4.32;1.85;;;15.60;94.10;;;;;;5031036;28;20043;-84
2022/07/15 04:42:20;;;;;;;4.25;1.45;;;15.70;94.00;;;;;;5051259;28;20038;-80
2022/07/15 04:44:47;;;;;;;2.70;0.80;;;15.70;94.10;;;;;;5058537;28;20032;-81
2022/07/15 04:47:12;;;;;;;3.20;0.88;;;15.80;94.10;;;;;;5070998;28;20466;-80
2022/07/15 04:52:22;;;;;;;3.28;1.00;;;15.80;94.20;;;;;;5046777;28;20051;-84
2022/07/15 04:54:47;;;;;;;2.33;0.88;;;15.90;93.80;;;;;;5046683;28;20066;-83
2022/07/15 04:57:13;;;;;;;1.65;1.00;;;15.90;93.90;;;;;;5064432;28;20032;-79
2022/07/15 04:59:39;;;;;;;2.90;0.82;;;15.90;94.00;;;;;;5029103;28;20627;-80
2022/07/15 05:02:05;;;;;;;4.85;1.10;;;15.90;93.90;;;;;;5046520;28;20056;-82
2022/07/15 05:04:30;;;;;;;3.13;0.80;;;15.80;94.10;;;;;;5061460;28;20044;-80
2022/07/15 05:06:56;;;;;;;2.97;0.73;;;15.90;94.30;;;;;;5031144;28;20033;-79
2022/07/15 05:09:22;;;;;;;3.05;0.70;;;15.80;94.10;;;;;;5046260;28;20037;-83
2022/07/15 05:11:47;;;;;;;4.05;0.73;;;15.90;94.30;;;;;;5046435;28;20037;-83
2022/07/15 05:14:13;;;;;;;5.88;0.85;;;16.00;94.10;;;;;;5029740;28;20028;-79
2022/07/15 05:16:39;;;;;;;3.72;0.90;;;16.10;93.80;;;;;;5038693;28;20221;-80
2022/07/15 05:19:04;;;;;;;6.35;1.00;;;16.20;93.90;;;;;;5038537;28;20123;-81
2022/07/15 05:21:30;;;;;;;2.72;0.70;;;16.20;93.70;;;;;;5053904;28;20532;-80
2022/07/15 05:23:55;;;;;;;4.80;0.88;;;16.30;93.70;;;;;;5037727;28;20055;-80
2022/07/15 05:26:21;;;;;;;3.20;0.80;;;16.40;93.40;;;;;;5036226;28;20059;-80
2022/07/15 05:28:46;;;;;;;3.70;0.90;;;16.50;93.20;;;;;;5055442;28;20032;-83
2022/07/15 05:31:12;;;;;;;4.97;1.00;;;16.50;93.20;;;;;;5056055;28;20048;-80
2022/07/15 05:33:37;;;;;;;3.05;1.38;;;16.60;93.20;;;;;;5034356;28;20175;-80
2022/07/15 05:36:04;;;;;;;3.40;1.27;;;16.70;93.10;;;;;;5035020;28;20043;-78
2022/07/15 05:38:29;;;;;;;3.35;1.05;;;16.70;93.00;;;;;;5054165;28;20138;-80
2022/07/15 05:40:55;;;;;;;3.35;0.75;;;16.80;93.20;;;;;;5054283;28;20868;-81
2022/07/15 05:43:20;;;;;;;3.33;0.80;;;16.90;92.80;;;;;;5070336;28;20072;-80
2022/07/15 05:45:46;;;;;;;4.05;0.70;;;16.90;92.70;;;;;;5049416;28;20039;-79
2022/07/15 05:48:11;;;;;;;3.08;0.93;;;16.90;92.60;;;;;;5071775;28;20029;-78
2022/07/15 05:50:37;;;;;;;2.67;0.88;;;16.90;92.80;;;;;;5071804;28;20489;-79
2022/07/15 05:53:03;;;;;;;4.75;1.05;;;17.00;92.80;;;;;;5052680;28;20074;-80
2022/07/15 05:55:29;;;;;;;2.15;0.70;;;17.00;92.70;;;;;;5055870;28;20398;-78
2022/07/15 05:57:55;;;;;;;4.22;1.50;;;17.00;92.40;;;;;;5071716;28;20040;-77
2022/07/15 06:00:20;;;;;;;6.13;1.00;;;17.10;92.40;;;;;;5071957;28;20126;-80
2022/07/15 06:02:46;;;;;;;7.05;1.55;;;17.10;92.30;;;;;;5053249;28;20056;-78
2022/07/15 06:05:12;;;;;;;3.25;0.85;;;17.10;92.30;;;;;;5053444;28;20401;-79
2022/07/15 06:07:37;;;;;;;3.08;0.77;;;17.10;92.40;;;;;;5053102;28;20032;-83
2022/07/15 06:10:04;;;;;;;9.63;1.23;;;17.20;92.40;;;;;;5071302;28;20037;-79
2022/07/15 06:12:30;;;;;;;3.35;1.02;;;17.30;92.30;;;;;;5071302;28;20055;-76
2022/07/15 06:14:55;;;;;;;2.60;0.82;;;17.40;92.10;;;;;;5071000;28;20067;-81
2022/07/15 06:17:21;;;;;;;5.88;0.70;;;17.30;92.20;;;;;;5052874;28;20036;-76
2022/07/15 06:19:46;;;;;;;5.57;1.00;;;17.40;92.00;;;;;;5071259;28;20031;-79
2022/07/15 06:22:12;;;;;;;5.93;0.82;;;17.40;91.90;;;;;;5052548;28;20028;-79
2022/07/15 06:24:38;;;;;;;5.82;0.70;;;17.40;92.20;;;;;;5053192;28;20444;-84
2022/07/15 06:27:03;;;;;;;4.15;0.93;;;17.50;91.90;;;;;;5070257;28;20024;-80
2022/07/15 06:29:29;;;;;;;5.90;0.80;;;17.50;91.60;;;;;;5053415;28;20032;-79
2022/07/15 06:31:54;;;;;;;5.70;0.90;;;17.70;91.60;;;;;;5053076;28;20367;-78
2022/07/15 06:34:20;;;;;;;5.20;0.90;;;17.80;91.10;;;;;;5070555;28;20032;-77
2022/07/15 06:36:45;;;;;;;8.20;0.90;;;17.90;90.90;;;;;;5071173;28;20394;-77
2022/07/15 06:39:11;;;;;;;6.47;1.60;;;17.80;90.70;;;;;;5053604;28;20093;-79
2022/07/15 06:41:36;;;;;;;7.13;1.77;;;17.90;91.00;;;;;;5054479;28;20111;-77
2022/07/15 06:44:04;;;;;;;4.50;0.65;;;17.80;89.70;;;;;;5054716;28;20032;-77
2022/07/15 06:46:29;;;;;;;5.70;0.70;;;17.90;90.00;;;;;;5070302;28;20032;-75
2022/07/15 06:48:55;;;;;;;2.22;0.75;;;18.00;88.90;;;;;;5071649;28;20029;-78
2022/07/15 06:51:21;;;;;;;14.68;1.65;;;18.10;88.80;;;;;;5071793;28;20045;-80
2022/07/15 06:53:47;;;;;;;10.02;1.92;;;18.10;88.20;;;;;;5072631;28;20140;-79
2022/07/15 06:56:12;;;;;;;4.82;0.93;;;18.00;88.10;;;;;;5071214;28;20029;-79
2022/07/15 06:58:38;;;;;;;6.55;1.67;;;17.90;88.10;;;;;;5070875;28;20111;-77
2022/07/15 07:01:04;;;;;;;3.08;0.55;;;17.90;88.40;;;;;;5070063;28;20121;-77
2022/07/15 07:03:30;;;;;;;7.32;0.80;;;18.00;87.60;;;;;;5070211;28;20034;-77
2022/07/15 07:05:57;;;;;;;4.28;0.63;;;18.10;87.10;;;;;;5071500;28;20032;-81
2022/07/15 07:08:23;;;;;;;7.57;0.82;;;18.20;87.20;;;;;;5070400;28;20028;-80
2022/07/15 07:10:48;;;;;;;4.13;1.13;;;18.40;85.00;;;;;;5070034;28;20554;-79
2022/07/15 07:13:14;;;;;;;4.50;0.70;;;18.50;85.20;;;;;;5070652;28;20059;-79
2022/07/15 07:15:39;;;;;;;5.30;0.77;;;18.60;83.80;;;;;;5069798;28;20024;-80
2022/07/15 07:18:05;;;;;;;3.33;0.70;;;18.60;84.40;;;;;;5052804;28;20398;-79
2022/07/15 07:20:30;;;;;;;3.83;0.60;;;18.70;84.00;;;;;;5070632;28;20040;-80
2022/07/15 07:22:57;;;;;;;6.45;0.60;;;18.80;83.90;;;;;;5069698;28;20032;-83
2022/07/15 07:25:23;;;;;;;2.67;0.88;;;18.90;82.70;;;;;;5069624;28;20020;-77
2022/07/15 07:27:48;;;;;;;5.30;1.05;;;19.00;82.40;;;;;;5069971;28;20110;-78
2022/07/15 07:30:14;;;;;;;6.65;0.88;;;19.00;81.40;;;;;;5070138;28;20677;-79
2022/07/15 07:32:39;;;;;;;2.17;0.45;;;19.00;81.70;;;;;;5069999;28;20021;-77
2022/07/15 07:35:05;;;;;;;3.65;0.65;;;19.30;82.70;;;;;;5070057;28;20458;-78
2022/07/15 07:37:36;;;;;;;5.82;0.70;;;19.50;81.50;;;;;;5051656;28;20037;-78
2022/07/15 07:40:02;;;;;;;4.78;0.60;;;19.70;80.30;;;;;;5051262;28;20510;-78
2022/07/15 07:42:28;;;;;;;5.57;0.80;;;19.70;79.90;;;;;;5069797;28;20063;-78
2022/07/15 07:44:53;;;;;;;3.25;0.50;;;19.70;78.00;;;;;;5070120;28;20032;-81
2022/07/15 07:47:20;;;;;;;3.20;1.10;;;19.80;77.40;;;;;;5069496;28;20032;-77
2022/07/15 07:49:46;;;;;;;2.22;0.50;;;19.80;77.90;;;;;;5052214;28;20520;-83
2022/07/15 07:52:11;;;;;;;1.73;0.55;;;19.80;77.90;;;;;;5051696;28;20029;-81
2022/07/15 07:54:37;;;;;;;1.33;0.57;;;19.80;77.50;;;;;;5069817;28;20117;-79
2022/07/15 07:57:03;;;;;;;4.45;0.60;;;19.90;74.20;;;;;;5068803;28;20028;-82
2022/07/15 07:59:28;;;;;;;2.17;0.52;;;19.80;71.40;;;;;;5051900;28;20032;-78
2022/07/15 08:01:54;;;;;;;3.20;0.43;;;19.90;72.80;;;;;;5051581;28;20534;-78
2022/07/15 08:04:20;;;;;;;1.40;0.40;;;19.90;71.40;;;;;;5069450;28;20246;-78
2022/07/15 08:06:45;;;;;;;3.25;0.55;;;19.90;69.50;;;;;;5069127;28;20029;-79
2022/07/15 08:09:11;;;;;;;1.60;0.73;;;19.90;69.80;;;;;;5051404;28;20043;-78
2022/07/15 08:11:36;;;;;;;1.65;0.50;;;20.00;70.20;;;;;;5051426;28;20040;-77
2022/07/15 08:14:02;;;;;;;1.65;0.32;;;20.00;67.90;;;;;;5069297;28;20028;-77
2022/07/15 08:16:28;;;;;;;1.35;0.38;;;19.90;67.60;;;;;;5069185;28;20032;-78
2022/07/15 08:18:53;;;;;;;1.50;0.30;;;19.90;67.60;;;;;;5069369;28;20067;-78
2022/07/15 08:21:19;;;;;;;3.58;0.52;;;20.00;67.10;;;;;;5051308;28;20033;-80
2022/07/15 08:23:44;;;;;;;2.17;0.30;;;20.00;66.20;;;;;;5068680;28;20459;-78
2022/07/15 08:26:11;;;;;;;1.90;0.35;;;20.10;67.00;;;;;;5050528;28;20036;-83
2022/07/15 08:28:36;;;;;;;2.60;0.73;;;20.20;65.40;;;;;;5070641;28;20025;-79
2022/07/15 08:31:02;;;;;;;2.92;0.50;;;20.20;66.30;;;;;;5072657;28;20169;-78
2022/07/15 08:33:28;;;;;;;4.45;0.55;;;20.20;66.10;;;;;;5055143;28;20021;-82
2022/07/15 08:35:55;;;;;;;3.22;0.38;;;20.20;66.10;;;;;;5072560;28;20415;-77
2022/07/15 08:38:20;;;;;;;2.72;0.40;;;20.10;65.60;;;;;;5072887;28;20036;-77
2022/07/15 08:40:46;;;;;;;1.60;0.38;;;20.00;67.00;;;;;;5054430;28;20094;-80
2022/07/15 08:43:12;;;;;;;2.88;0.43;;;19.90;66.90;;;;;;5055205;28;20100;-77
2022/07/15 08:45:39;;;;;;;1.25;0.40;;;19.90;67.70;;;;;;5054376;28;20115;-77
2022/07/15 08:48:07;;;;;;;1.23;0.30;;;19.90;66.10;;;;;;5073042;28;20131;-78
2022/07/15 08:50:34;;;;;;;1.25;0.40;;;20.00;66.10;;;;;;5055029;28;20102;-77
2022/07/15 08:53:00;;;;;;;5.85;0.32;;;20.10;65.80;;;;;;5072598;28;20478;-83
2022/07/15 08:55:26;;;;;;;1.85;0.40;;;20.20;67.20;;;;;;5072110;28;20036;-77
2022/07/15 08:57:53;;;;;;;1.25;0.30;;;20.30;65.10;;;;;;5055058;28;20486;-84
2022/07/15 09:00:22;;;;;;;2.08;0.50;;;20.40;64.80;;;;;;5072837;28;20032;-77
2022/07/15 09:02:48;;;;;;;2.70;0.40;;;20.50;64.10;;;;;;5054107;28;20029;-77
2022/07/15 09:05:23;;;;;;;2.47;0.30;;;20.70;63.80;;;;;;5073076;28;20093;-78
2022/07/15 09:07:53;;;;;;;4.35;0.60;;;20.70;63.90;;;;;;5057053;28;20367;-80
2022/07/15 09:10:19;;;;;;;6.43;0.55;;;20.80;63.70;;;;;;5054420;28;20029;-80
2022/07/15 09:12:51;;;;;;;1.70;0.38;;;20.90;62.90;;;;;;5054298;28;20470;-80
2022/07/15 09:15:37;;;;;;;0.68;0.20;;;21.00;62.50;;;;;;5054518;28;20039;-81
2022/07/15 09:18:08;;;;;;;2.05;0.65;;;21.20;62.80;;;;;;5072633;28;20029;-81
2022/07/15 09:20:35;;;;;;;1.92;0.43;;;21.40;62.30;;;;;;5088131;28;20035;-77
2022/07/15 09:23:01;;;;;;;3.30;0.40;;;21.40;61.50;;;;;;5054149;28;20501;-81
2022/07/15 09:25:28;;;;;;;0.95;0.20;;;21.60;62.10;;;;;;5073001;28;20033;-78
2022/07/15 09:27:54;;;;;;;1.27;0.45;;;21.70;61.90;;;;;;5054857;28;20032;-79
2022/07/15 09:36:06;;;;;;;2.13;0.80;;;22.00;62.10;;;;;;5072337;28;20486;-84
2022/07/15 09:38:45;;;;;;;1.38;0.32;;;22.10;59.10;;;;;;5071759;28;20494;-79
2022/07/15 09:41:28;;;;;;;2.05;0.40;;;22.00;58.80;;;;;;5072332;28;20036;-80
2022/07/15 09:44:09;;;;;;;2.20;0.40;;;21.90;59.00;;;;;;5053720;28;20482;-80
2022/07/15 09:46:48;;;;;;;2.90;0.40;;;22.00;59.20;;;;;;5071852;28;20024;-79
2022/07/15 09:49:31;;;;;;;3.53;0.57;;;22.10;58.40;;;;;;5073412;28;20032;-80
2022/07/15 09:52:02;;;;;;;5.53;0.70;;;22.10;58.30;;;;;;5073818;28;20036;-78
2022/07/15 09:54:33;;;;;;;0.28;0.20;;;22.10;58.60;;;;;;5072231;28;20371;-77
2022/07/15 09:57:01;;;;;;;3.58;0.50;;;22.00;58.60;;;;;;5052965;28;20413;-79
2022/07/15 09:59:29;;;;;;;1.83;0.70;;;22.00;58.30;;;;;;5053757;28;20068;-78
2022/07/15 10:01:55;;;;;;;3.08;0.60;;;22.00;60.50;;;;;;5053190;28;20028;-80
2022/07/15 10:04:22;;;;;;;1.00;0.40;;;22.00;58.90;;;;;;5053192;28;20510;-75
2022/07/15 10:06:50;;;;;;;2.08;0.73;;;21.90;61.00;;;;;;5070184;28;20051;-79
2022/07/15 10:09:22;;;;;;;3.58;0.50;;;21.90;60.20;;;;;;5053230;28;20033;-79
2022/07/15 10:11:52;;;;;;;2.50;0.40;;;22.00;59.50;;;;;;5053009;28;20036;-77
2022/07/15 10:14:42;;;;;;;1.08;0.30;;;22.00;59.70;;;;;;5053863;28;20082;-80
2022/07/15 10:17:33;;;;;;;4.78;0.40;;;22.20;60.30;;;;;;5070348;28;20462;-79
2022/07/15 10:20:31;;;;;;;0.95;0.35;;;22.50;58.40;;;;;;5053344;28;20035;-79
2022/07/15 10:23:21;;;;;;;1.33;0.32;;;22.50;58.70;;;;;;5070808;28;20051;-78
2022/07/15 10:26:22;;;;;;;2.67;0.40;;;22.40;59.00;;;;;;5052434;28;20130;-79
2022/07/15 10:28:55;;;;;;;1.90;0.50;;;22.50;59.20;;;;;;5071144;28;20067;-78
2022/07/15 10:31:25;;;;;;;;;;;22.40;58.20;;;;;;5071055;28;20111;-79
2022/07/15 10:34:03;;;;;;;1.30;0.50;;;22.40;58.60;;;;;;5070688;28;19954;-78
2022/07/15 10:36:54;;;;;;;0.35;0.30;;;22.40;58.90;;;;;;5069915;28;20638;-77
2022/07/15 10:39:26;;;;;;;1.27;0.60;;;22.60;58.80;;;;;;5070913;28;20024;-82
2022/07/15 10:41:59;;;;;;;1.77;0.30;;;22.60;60.00;;;;;;5052596;28;20036;-81
2022/07/15 10:44:27;;;;;;;2.25;0.40;;;22.70;59.90;;;;;;5086344;28;20078;-78
2022/07/15 10:47:11;;;;;;;3.92;0.40;;;22.80;59.90;;;;;;5051902;28;20027;-78
2022/07/15 10:49:37;;;;;;;1.10;0.38;;;22.90;59.70;;;;;;5052765;28;20033;-81
2022/07/15 10:52:12;;;;;;;2.95;0.40;;;23.20;57.50;;;;;;5051502;28;20032;-80
2022/07/15 10:54:41;;;;;;;1.48;0.47;;;23.30;57.00;;;;;;5086021;28;20116;-80
2022/07/15 10:57:08;;;;;;;3.53;0.43;;;23.40;56.30;;;;;;5051963;28;20041;-81
2022/07/15 10:59:41;;;;;;;6.00;0.60;;;23.50;57.20;;;;;;5070557;28;20126;-78
2022/07/15 11:02:06;;;;;;;0.85;0.30;;;23.50;56.20;;;;;;5051973;28;20030;-77
2022/07/15 11:04:33;;;;;;;1.63;0.38;;;23.30;55.00;;;;;;5070478;28;20028;-78
2022/07/15 11:07:07;;;;;;;3.78;0.50;;;23.10;55.70;;;;;;5069315;28;20036;-78
2022/07/15 11:09:51;;;;;;;1.63;0.40;;;22.90;56.80;;;;;;5052450;28;20078;-81
2022/07/15 11:12:44;;;;;;;1.70;0.50;;;23.00;56.10;;;;;;5051369;28;20032;-81
2022/07/15 11:15:23;;;;;;;2.50;0.60;;;23.20;56.70;;;;;;5070025;28;20104;-78
2022/07/15 11:17:52;;;;;;;2.30;0.40;;;23.40;58.40;;;;;;5070283;28;20166;-79
2022/07/15 11:20:20;;;;;;;0.60;0.30;;;23.60;56.30;;;;;;5052408;28;20054;-78
2022/07/15 11:22:52;;;;;;;3.05;0.63;;;23.70;56.10;;;;;;5051863;28;20718;-79
2022/07/15 11:25:37;;;;;;;1.13;0.40;;;23.70;55.90;;;;;;5051555;28;20029;-80
2022/07/15 11:28:10;;;;;;;1.95;0.30;;;23.50;56.10;;;;;;5051932;28;20040;-77
2022/07/15 11:30:53;;;;;;;2.58;0.40;;;23.50;57.40;;;;;;5070001;28;20068;-80
2022/07/15 11:33:19;;;;;;;;;;;23.60;56.00;;;;;;5052885;28;20020;-80
2022/07/15 11:35:49;;;;;;;6.15;0.52;;;23.80;56.10;;;;;;5051259;28;20007;-77
2022/07/15 11:38:15;;;;;;;5.45;0.52;;;23.90;57.10;;;;;;5070015;28;20025;-76
2022/07/15 11:46:17;;;;;;;2.08;0.50;;;24.70;56.20;;;;;;5069342;28;20036;-80
2022/07/15 11:48:42;;;;;;;0.88;0.40;;;24.70;54.70;;;;;;5069845;28;20032;-78
2022/07/15 11:51:10;;;;;;;2.00;0.35;;;24.70;56.00;;;;;;5051813;28;20072;-78
2022/07/15 11:53:39;;;;;;;3.05;0.40;;;24.60;53.90;;;;;;5069979;28;20102;-80
2022/07/15 11:56:05;;;;;;;1.90;0.50;;;24.40;54.40;;;;;;5051318;28;20029;-79
2022/07/15 11:58:36;;;;;;;1.45;0.60;;;24.20;55.30;;;;;;5069585;28;20107;-77
2022/07/15 12:01:06;;;;;;;4.18;0.70;;;24.00;55.10;;;;;;5069306;28;20379;-78
2022/07/15 12:03:52;;;;;;;0.65;0.30;;;23.70;55.80;;;;;;5071213;28;20066;-79
2022/07/15 12:06:31;;;;;;;2.03;0.35;;;23.60;55.60;;;;;;5071608;28;20032;-82
2022/07/15 12:08:59;;;;;;;0.77;0.20;;;24.00;55.80;;;;;;5062073;28;20090;-79
2022/07/15 12:11:26;;;;;;;2.10;0.50;;;24.20;55.40;;;;;;5073322;28;20052;-78
2022/07/15 12:13:59;;;;;;;1.33;0.50;;;24.50;56.20;;;;;;5073649;28;20033;-78
2022/07/15 12:16:34;;;;;;;3.33;0.43;;;24.90;54.20;;;;;;5072936;28;20031;-81
2022/07/15 12:19:07;;;;;;;3.63;0.43;;;25.10;54.70;;;;;;5055533;28;20036;-78
2022/07/15 12:21:33;;;;;;;1.67;0.40;;;25.40;54.60;;;;;;5054970;28;20116;-79
2022/07/15 12:24:11;;;;;;;1.65;0.40;;;25.50;53.00;;;;;;5073269;28;20032;-79
2022/07/15 12:26:42;;;;;;;3.13;0.60;;;25.70;54.00;;;;;;5055665;28;20475;-78
2022/07/15 12:29:09;;;;;;;2.53;0.40;;;25.90;53.50;;;;;;5075182;28;20037;-78
2022/07/15 12:31:37;;;;;;;2.20;0.43;;;25.90;52.00;;;;;;5072803;28;20417;-81
2022/07/15 12:34:03;;;;;;;2.17;0.35;;;25.50;53.30;;;;;;5055252;28;20097;-81
2022/07/15 12:36:32;;;;;;;4.88;0.50;;;25.40;52.50;;;;;;5054773;28;20467;-81
2022/07/15 12:39:10;;;;;;;4.28;1.10;;;25.10;52.60;;;;;;5052725;28;20040;-79
2022/07/15 12:41:37;;;;;;;3.75;0.47;;;24.60;53.40;;;;;;5053037;28;20482;-79
2022/07/15 12:44:05;;;;;;;3.90;0.30;;;24.30;54.20;;;;;;5052931;28;20035;-77
2022/07/15 12:46:50;;;;;;;4.82;0.60;;;24.10;54.40;;;;;;5052565;28;20540;-79
2022/07/15 12:49:42;;;;;;;3.33;0.57;;;24.00;54.90;;;;;;5053055;28;20095;-79
2022/07/15 12:52:30;;;;;;;1.47;0.43;;;23.70;54.50;;;;;;5064084;28;20036;-79
2022/07/15 12:54:56;;;;;;;2.90;0.63;;;23.40;55.10;;;;;;5054741;28;20040;-85
2022/07/15 12:57:26;;;;;;;4.85;0.70;;;23.10;55.90;;;;;;5072627;28;20025;-78
2022/07/15 12:59:59;;;;;;;4.38;0.95;;;22.90;56.10;;;;;;5055165;28;20503;-81
2022/07/15 13:02:25;;;;;;;2.15;0.55;;;22.90;55.70;;;;;;5072073;28;20409;-83
2022/07/15 13:04:51;;;;;;;3.28;0.57;;;22.80;55.90;;;;;;5054809;28;20735;-79
2022/07/15 13:07:17;;;;;;;1.95;0.50;;;22.80;56.30;;;;;;5071590;28;20040;-82
2022/07/15 13:09:44;;;;;;;1.23;0.60;;;23.00;58.50;;;;;;5075625;28;20067;-83